This is the latest recevied weather packets stored in our database for station/object W0DP. If no packets are shown the sender has not sent any weather packets the latest 10 day(s).
| Time | Temp. | Humidity | Pressure | Rain* | Wind** | Luminosity | Snow |
|---|---|---|---|---|---|---|---|
| 1777149015 | 20.56° C | 46% | 1014.1 hPa | 0 mm | - | - | - |
| 1777147215 | 21.11° C | 44% | 1014.3 hPa | 0 mm | - | - | - |
| 1777146616 | 20.56° C | 46% | 1014.5 hPa | 0 mm | - | - | - |
| 1777144835 | 20.56° C | 43% | 1014.8 hPa | 0 mm | - | - | - |
| 1777142415 | 19.44° C | 45% | 1014.9 hPa | 0 mm | - | - | - |
| 1777140037 | 18.89° C | 48% | 1015.4 hPa | 0 mm | - | - | - |
| 1777139437 | 18.89° C | 48% | 1015.4 hPa | 0 mm | - | - | - |
| 1777137017 | 18.33° C | 50% | 1016 hPa | 0 mm | - | - | - |
| 1777132257 | 17.22° C | 55% | 1016.4 hPa | 0 mm | - | - | - |
| 1777131017 | 16.67° C | 51% | 1016.5 hPa | 0 mm | - | - | - |
| 1777129837 | 16.67° C | 52% | 1016.4 hPa | 0 mm | - | - | - |
| 1777128017 | 16.11° C | 60% | 1016.2 hPa | 0 mm | - | - | - |
| 1777126816 | 15° C | 59% | 1016.2 hPa | 0 mm | - | - | - |
| 1777124416 | 13.33° C | 67% | 1015.8 hPa | 0 mm | - | - | - |
| 1777121416 | 12.78° C | 67% | 1015.8 hPa | 0 mm | - | - | - |
| 1777120217 | 10.56° C | 77% | 1015.8 hPa | 0 mm | - | - | - |
| 1777119016 | 8.33° C | 90% | 1015.6 hPa | 0 mm | - | - | - |
| 1777117836 | 6.11° C | 95% | 1015.6 hPa | 0 mm | - | - | - |
| 1777117236 | 5° C | 95% | 1015.4 hPa | 0 mm | - | - | - |
| 1777112756 | 6.67° C | 94% | 1015.2 hPa | 0 mm | - | - | - |
| 1777108516 | 6.67° C | 94% | 1015.4 hPa | 0 mm | - | - | - |
| 1777107916 | 6.67° C | 94% | 1015.5 hPa | 0 mm | - | - | - |
| 1777101335 | 7.78° C | 93% | 1015.2 hPa | 0 mm | - | - | - |
| 1777099517 | 8.33° C | 93% | 1015.3 hPa | 0 mm | - | - | - |
| 1777098917 | 7.78° C | 92% | 1015.4 hPa | 0 mm | - | - | - |
* Rain latest hour (hover to see other rain measurements)
** Current wind speed in m/s (hover to see current wind gust speed)